sensor_id;sensor_type;location;lat;lon;timestamp;P1;P2;P0
62981;PMS5003;49075;53.988;27.678;2023-05-16T00:01:25;52.3;44.3;29.3
62981;PMS5003;49075;53.988;27.678;2023-05-16T00:06:25;51;42.4;28.4
62981;PMS5003;49075;53.988;27.678;2023-05-16T00:11:25;51;42.6;28.4
62981;PMS5003;49075;53.988;27.678;2023-05-16T00:16:25;46.8;39.8;26.6
62981;PMS5003;49075;53.988;27.678;2023-05-16T00:21:25;48.2;40.2;27.2
62981;PMS5003;49075;53.988;27.678;2023-05-16T00:26:37;51.2;42.6;28
62981;PMS5003;49075;53.988;27.678;2023-05-16T00:31:25;49.8;42;28.2
62981;PMS5003;49075;53.988;27.678;2023-05-16T00:36:25;50;42;28.4
62981;PMS5003;49075;53.988;27.678;2023-05-16T00:41:39;48;41;27.8
62981;PMS5003;49075;53.988;27.678;2023-05-16T00:46:43;52.2;43.6;29.4
62981;PMS5003;49075;53.988;27.678;2023-05-16T00:51:57;51.6;42.8;27.8
62981;PMS5003;49075;53.988;27.678;2023-05-16T00:56:35;48;40.4;27.2
62981;PMS5003;49075;53.988;27.678;2023-05-16T01:01:25;47.8;40.3;27.5
62981;PMS5003;49075;53.988;27.678;2023-05-16T01:06:25;46.8;39.6;27
62981;PMS5003;49075;53.988;27.678;2023-05-16T01:11:50;49.6;41.6;28
62981;PMS5003;49075;53.988;27.678;2023-05-16T01:16:25;49;41.2;27.8
62981;PMS5003;49075;53.988;27.678;2023-05-16T01:21:35;48.4;41;27.4
62981;PMS5003;49075;53.988;27.678;2023-05-16T01:26:39;48.4;40.4;27.2
62981;PMS5003;49075;53.988;27.678;2023-05-16T01:31:25;49;41;27.4
62981;PMS5003;49075;53.988;27.678;2023-05-16T01:36:38;49.2;40.4;27.4
62981;PMS5003;49075;53.988;27.678;2023-05-16T01:41:26;49.4;41.8;28
62981;PMS5003;49075;53.988;27.678;2023-05-16T01:46:25;51.2;43;28.6
62981;PMS5003;49075;53.988;27.678;2023-05-16T01:51:50;46.8;40;27.2
62981;PMS5003;49075;53.988;27.678;2023-05-16T01:56:52;50.2;42.4;28.2
62981;PMS5003;49075;53.988;27.678;2023-05-16T02:01:37;45.8;39.3;26.3
62981;PMS5003;49075;53.988;27.678;2023-05-16T02:07:13;48.6;41.2;27.8
62981;PMS5003;49075;53.988;27.678;2023-05-16T02:11:49;47.8;40;27.4
62981;PMS5003;49075;53.988;27.678;2023-05-16T02:16:25;48;40.8;27.2
62981;PMS5003;49075;53.988;27.678;2023-05-16T02:21:47;46.6;38.6;25.8
62981;PMS5003;49075;53.988;27.678;2023-05-16T02:26:37;44.8;37.6;25.6
62981;PMS5003;49075;53.988;27.678;2023-05-16T02:31:45;49.6;40.8;27
62981;PMS5003;49075;53.988;27.678;2023-05-16T02:36:25;47.4;41;26.8
62981;PMS5003;49075;53.988;27.678;2023-05-16T02:41:37;47.2;39.8;26.6
62981;PMS5003;49075;53.988;27.678;2023-05-16T02:46:32;45.4;38.2;26
62981;PMS5003;49075;53.988;27.678;2023-05-16T02:51:39;45.8;39.4;26.2
62981;PMS5003;49075;53.988;27.678;2023-05-16T02:56:37;43.8;37.2;24.4
62981;PMS5003;49075;53.988;27.678;2023-05-16T03:01:31;42.5;36.5;25
62981;PMS5003;49075;53.988;27.678;2023-05-16T03:06:39;46.4;39.2;26.6
62981;PMS5003;49075;53.988;27.678;2023-05-16T03:11:25;45.6;39;26.8
62981;PMS5003;49075;53.988;27.678;2023-05-16T03:16:35;47.4;40.8;26.8
62981;PMS5003;49075;53.988;27.678;2023-05-16T03:21:39;44.8;39;26.2
62981;PMS5003;49075;53.988;27.678;2023-05-16T03:26:37;43;37.2;25.4
62981;PMS5003;49075;53.988;27.678;2023-05-16T03:31:35;47;40;26.8
62981;PMS5003;49075;53.988;27.678;2023-05-16T03:36:25;45.6;39;26.6
62981;PMS5003;49075;53.988;27.678;2023-05-16T03:41:25;44.6;38.4;26.2
62981;PMS5003;49075;53.988;27.678;2023-05-16T03:46:35;44;38.2;25.2
62981;PMS5003;49075;53.988;27.678;2023-05-16T03:52:11;45.6;38.6;26.6
62981;PMS5003;49075;53.988;27.678;2023-05-16T03:56:25;47.2;39.8;26.8
62981;PMS5003;49075;53.988;27.678;2023-05-16T04:01:25;45.5;39;27
62981;PMS5003;49075;53.988;27.678;2023-05-16T04:06:37;46.2;39.8;27
62981;PMS5003;49075;53.988;27.678;2023-05-16T04:11:31;44.6;38;25.8
62981;PMS5003;49075;53.988;27.678;2023-05-16T04:16:35;45.2;38.8;26
62981;PMS5003;49075;53.988;27.678;2023-05-16T04:22:03;42.8;37.2;26.2
62981;PMS5003;49075;53.988;27.678;2023-05-16T04:26:31;46.2;38.6;26.2
62981;PMS5003;49075;53.988;27.678;2023-05-16T04:31:25;42.8;36.6;24.2
62981;PMS5003;49075;53.988;27.678;2023-05-16T04:36:47;40.6;36.2;25.4
62981;PMS5003;49075;53.988;27.678;2023-05-16T04:41:35;44.4;38.6;26.6
62981;PMS5003;49075;53.988;27.678;2023-05-16T04:46:51;43.4;36.8;25
62981;PMS5003;49075;53.988;27.678;2023-05-16T04:51:43;42;36;25
62981;PMS5003;49075;53.988;27.678;2023-05-16T04:56:49;42.2;36.8;25.2
62981;PMS5003;49075;53.988;27.678;2023-05-16T05:01:37;43.6;37;24.8
62981;PMS5003;49075;53.988;27.678;2023-05-16T05:06:31;42;36.3;24
62981;PMS5003;49075;53.988;27.678;2023-05-16T05:11:25;39.8;35;23.6
62981;PMS5003;49075;53.988;27.678;2023-05-16T05:16:49;42.8;36.2;24.8
62981;PMS5003;49075;53.988;27.678;2023-05-16T05:21:37;40.4;35.6;23.8
62981;PMS5003;49075;53.988;27.678;2023-05-16T05:26:25;45.2;38.4;26
62981;PMS5003;49075;53.988;27.678;2023-05-16T05:31:25;39.8;34.6;24.2
62981;PMS5003;49075;53.988;27.678;2023-05-16T05:36:25;39.2;34.8;23.4
62981;PMS5003;49075;53.988;27.678;2023-05-16T05:41:35;41.6;36.6;25
62981;PMS5003;49075;53.988;27.678;2023-05-16T05:46:27;42.2;36.2;24.8
62981;PMS5003;49075;53.988;27.678;2023-05-16T05:51:43;43.4;37.8;26.4
62981;PMS5003;49075;53.988;27.678;2023-05-16T05:56:41;42.2;36.6;24.6
62981;PMS5003;49075;53.988;27.678;2023-05-16T06:01:39;37.4;34;23.4
62981;PMS5003;49075;53.988;27.678;2023-05-16T06:06:39;41.5;35.3;23.8
62981;PMS5003;49075;53.988;27.678;2023-05-16T06:11:27;38.8;34.2;24
62981;PMS5003;49075;53.988;27.678;2023-05-16T06:16:53;37.6;33.6;23
62981;PMS5003;49075;53.988;27.678;2023-05-16T06:21:37;39.6;35.2;23.8
62981;PMS5003;49075;53.988;27.678;2023-05-16T06:26:45;39.4;34.6;24
62981;PMS5003;49075;53.988;27.678;2023-05-16T06:31:27;39.2;35;24
62981;PMS5003;49075;53.988;27.678;2023-05-16T06:36:27;37.2;33.8;23.2
62981;PMS5003;49075;53.988;27.678;2023-05-16T06:41:25;39.4;35.2;24.2
62981;PMS5003;49075;53.988;27.678;2023-05-16T06:46:35;41;36.2;24
62981;PMS5003;49075;53.988;27.678;2023-05-16T06:51:35;39;34.6;23.8
62981;PMS5003;49075;53.988;27.678;2023-05-16T06:56:39;43;36.6;25.4
62981;PMS5003;49075;53.988;27.678;2023-05-16T07:01:41;43;37.4;25.2
62981;PMS5003;49075;53.988;27.678;2023-05-16T07:06:25;35.3;32;23
62981;PMS5003;49075;53.988;27.678;2023-05-16T07:11:53;36.4;33.6;22.4
62981;PMS5003;49075;53.988;27.678;2023-05-16T07:16:25;38.8;34.8;23.4
62981;PMS5003;49075;53.988;27.678;2023-05-16T07:21:25;40.2;34.8;23.8
62981;PMS5003;49075;53.988;27.678;2023-05-16T07:26:47;35.6;32.8;22.2
62981;PMS5003;49075;53.988;27.678;2023-05-16T07:31:25;36.6;33.4;22.8
62981;PMS5003;49075;53.988;27.678;2023-05-16T07:36:39;35.4;31.6;22
62981;PMS5003;49075;53.988;27.678;2023-05-16T07:41:35;34.6;31.2;22.2
62981;PMS5003;49075;53.988;27.678;2023-05-16T07:46:35;30.6;29;21
62981;PMS5003;49075;53.988;27.678;2023-05-16T07:51:39;26.6;25.6;18
62981;PMS5003;49075;53.988;27.678;2023-05-16T07:56:25;29;27.2;18.8
62981;PMS5003;49075;53.988;27.678;2023-05-16T08:01:35;31;29.6;21.2
62981;PMS5003;49075;53.988;27.678;2023-05-16T08:06:25;30.8;29;19.5
62981;PMS5003;49075;53.988;27.678;2023-05-16T08:12:03;30.2;28.6;20.2
62981;PMS5003;49075;53.988;27.678;2023-05-16T08:16:43;25.6;24.8;17.8
62981;PMS5003;49075;53.988;27.678;2023-05-16T08:21:39;25.6;24.6;17.6
62981;PMS5003;49075;53.988;27.678;2023-05-16T08:26:41;26.4;25.8;18.4
62981;PMS5003;49075;53.988;27.678;2023-05-16T08:31:38;25;24.8;17.2
62981;PMS5003;49075;53.988;27.678;2023-05-16T08:37:13;24;23;17
62981;PMS5003;49075;53.988;27.678;2023-05-16T08:41:33;28.2;26.4;18.2
62981;PMS5003;49075;53.988;27.678;2023-05-16T08:46:27;24;23.4;16.6
62981;PMS5003;49075;53.988;27.678;2023-05-16T08:51:39;27.4;25.6;18.6
62981;PMS5003;49075;53.988;27.678;2023-05-16T08:56:37;29.2;28;19.6
62981;PMS5003;49075;53.988;27.678;2023-05-16T09:01:27;27.2;26.6;19.6
62981;PMS5003;49075;53.988;27.678;2023-05-16T09:06:39;33.3;31.5;21.8
62981;PMS5003;49075;53.988;27.678;2023-05-16T09:11:27;31;29.4;20.8
62981;PMS5003;49075;53.988;27.678;2023-05-16T09:16:41;31;29.6;19.8
62981;PMS5003;49075;53.988;27.678;2023-05-16T09:21:39;35.6;32.4;21.4
62981;PMS5003;49075;53.988;27.678;2023-05-16T09:26:27;33.4;31;22
62981;PMS5003;49075;53.988;27.678;2023-05-16T09:31:28;33;31.4;20.8
62981;PMS5003;49075;53.988;27.678;2023-05-16T09:36:52;28.6;27.2;18.8
62981;PMS5003;49075;53.988;27.678;2023-05-16T09:41:37;34.2;31.6;21.8
62981;PMS5003;49075;53.988;27.678;2023-05-16T09:46:49;32.8;30.4;21.8
62981;PMS5003;49075;53.988;27.678;2023-05-16T09:51:27;37.8;33.6;22.8
62981;PMS5003;49075;53.988;27.678;2023-05-16T09:56:47;35.2;31.8;21.2
62981;PMS5003;49075;53.988;27.678;2023-05-16T10:01:41;34.8;31.4;21.6
62981;PMS5003;49075;53.988;27.678;2023-05-16T10:06:33;33.4;31.2;22.6
62981;PMS5003;49075;53.988;27.678;2023-05-16T10:11:38;34.5;32;23
62981;PMS5003;49075;53.988;27.678;2023-05-16T10:16:27;36.4;32.8;23.6
62981;PMS5003;49075;53.988;27.678;2023-05-16T10:21:28;35;32.4;22.4
62981;PMS5003;49075;53.988;27.678;2023-05-16T10:26:33;34.6;32.2;22.8
62981;PMS5003;49075;53.988;27.678;2023-05-16T10:31:43;35.4;32.8;22.6
62981;PMS5003;49075;53.988;27.678;2023-05-16T10:36:27;35.2;31.8;21.6
62981;PMS5003;49075;53.988;27.678;2023-05-16T10:41:41;39;34.6;23.8
62981;PMS5003;49075;53.988;27.678;2023-05-16T10:46:49;31;29.8;20.4
62981;PMS5003;49075;53.988;27.678;2023-05-16T10:51:43;39;35;23.6
62981;PMS5003;49075;53.988;27.678;2023-05-16T10:56:27;35.2;32.4;21.8
62981;PMS5003;49075;53.988;27.678;2023-05-16T11:01:28;38.6;34.4;23.2
62981;PMS5003;49075;53.988;27.678;2023-05-16T11:06:44;38.2;34;23
62981;PMS5003;49075;53.988;27.678;2023-05-16T11:11:42;36.8;33;23
62981;PMS5003;49075;53.988;27.678;2023-05-16T11:16:44;37.6;34;24
62981;PMS5003;49075;53.988;27.678;2023-05-16T11:22:41;36.2;32.6;22.4
62981;PMS5003;49075;53.988;27.678;2023-05-16T11:26:42;39.2;34.4;23.2
62981;PMS5003;49075;53.988;27.678;2023-05-16T11:31:27;37.6;33.6;22.8
62981;PMS5003;49075;53.988;27.678;2023-05-16T11:36:49;37.6;33.2;23
62981;PMS5003;49075;53.988;27.678;2023-05-16T11:41:27;37.4;32.8;22.8
62981;PMS5003;49075;53.988;27.678;2023-05-16T11:46:27;37.6;33.4;22.6
62981;PMS5003;49075;53.988;27.678;2023-05-16T11:51:27;40.2;35;22.8
62981;PMS5003;49075;53.988;27.678;2023-05-16T11:56:39;38.6;33.6;23
62981;PMS5003;49075;53.988;27.678;2023-05-16T12:01:32;35.2;31.8;20.8
62981;PMS5003;49075;53.988;27.678;2023-05-16T12:06:59;35.4;32.6;22.2
62981;PMS5003;49075;53.988;27.678;2023-05-16T12:11:27;37.8;33.5;23.3
62981;PMS5003;49075;53.988;27.678;2023-05-16T12:16:28;42.6;37;25.2
62981;PMS5003;49075;53.988;27.678;2023-05-16T12:21:27;39.2;34.4;23.2
62981;PMS5003;49075;53.988;27.678;2023-05-16T12:26:40;36.4;32.8;23.6
62981;PMS5003;49075;53.988;27.678;2023-05-16T12:31:27;35.2;31.8;22.2
62981;PMS5003;49075;53.988;27.678;2023-05-16T12:36:30;36.6;32.6;22.2
62981;PMS5003;49075;53.988;27.678;2023-05-16T12:41:28;40.8;35.6;25
62981;PMS5003;49075;53.988;27.678;2023-05-16T12:46:40;39;34.6;23.6
62981;PMS5003;49075;53.988;27.678;2023-05-16T12:51:54;42;36.2;23.8
62981;PMS5003;49075;53.988;27.678;2023-05-16T12:56:27;37.6;33.8;23.2
62981;PMS5003;49075;53.988;27.678;2023-05-16T13:01:37;37;32.2;21.4
62981;PMS5003;49075;53.988;27.678;2023-05-16T13:06:53;37.8;33.6;22.6
62981;PMS5003;49075;53.988;27.678;2023-05-16T13:11:39;38;34;23.3
62981;PMS5003;49075;53.988;27.678;2023-05-16T13:16:27;35.6;32.4;22.4
62981;PMS5003;49075;53.988;27.678;2023-05-16T13:21:37;35.6;33;22.4
62981;PMS5003;49075;53.988;27.678;2023-05-16T13:26:27;38.4;34;22.8
62981;PMS5003;49075;53.988;27.678;2023-05-16T13:31:37;37.2;32.8;22
62981;PMS5003;49075;53.988;27.678;2023-05-16T13:36:27;34;31.2;21.2
62981;PMS5003;49075;53.988;27.678;2023-05-16T13:41:50;37.2;32.8;22.2
62981;PMS5003;49075;53.988;27.678;2023-05-16T13:46:27;32.8;30.4;21.4
62981;PMS5003;49075;53.988;27.678;2023-05-16T13:51:27;36.4;32.8;22.8
62981;PMS5003;49075;53.988;27.678;2023-05-16T13:56:27;37;33.2;22.6
62981;PMS5003;49075;53.988;27.678;2023-05-16T14:01:53;39.2;34.8;23.8
62981;PMS5003;49075;53.988;27.678;2023-05-16T14:06:33;39;34;22.8
62981;PMS5003;49075;53.988;27.678;2023-05-16T14:11:37;40;35.3;24
62981;PMS5003;49075;53.988;27.678;2023-05-16T14:16:37;38.4;34.6;22.6
62981;PMS5003;49075;53.988;27.678;2023-05-16T14:21:27;38.8;34;23.4
62981;PMS5003;49075;53.988;27.678;2023-05-16T14:26:37;39.4;34.6;23.8
62981;PMS5003;49075;53.988;27.678;2023-05-16T14:31:38;39.2;34.6;23.2
62981;PMS5003;49075;53.988;27.678;2023-05-16T14:36:34;39.4;34.4;23.6
62981;PMS5003;49075;53.988;27.678;2023-05-16T14:41:39;41.4;36.2;24.4
62981;PMS5003;49075;53.988;27.678;2023-05-16T14:46:41;39.8;35.6;24
62981;PMS5003;49075;53.988;27.678;2023-05-16T14:51:28;40;35;24
62981;PMS5003;49075;53.988;27.678;2023-05-16T14:56:28;37;32.8;22.6
62981;PMS5003;49075;53.988;27.678;2023-05-16T15:01:28;38.6;33.8;22.4
62981;PMS5003;49075;53.988;27.678;2023-05-16T15:06:46;35.4;31.8;22.2
62981;PMS5003;49075;53.988;27.678;2023-05-16T15:11:52;36.8;33.4;22.2
62981;PMS5003;49075;53.988;27.678;2023-05-16T15:16:54;34;30.8;21.3
62981;PMS5003;49075;53.988;27.678;2023-05-16T15:21:48;36;32.8;22.6
62981;PMS5003;49075;53.988;27.678;2023-05-16T15:26:40;40.2;35.4;24
62981;PMS5003;49075;53.988;27.678;2023-05-16T15:31:40;34.6;31.6;22.2
62981;PMS5003;49075;53.988;27.678;2023-05-16T15:36:34;33.8;31;21.2
62981;PMS5003;49075;53.988;27.678;2023-05-16T15:41:28;32.8;30.8;21.8
62981;PMS5003;49075;53.988;27.678;2023-05-16T15:46:50;35.4;32.8;22
62981;PMS5003;49075;53.988;27.678;2023-05-16T15:51:28;37;33.6;23.2
62981;PMS5003;49075;53.988;27.678;2023-05-16T15:56:28;33.4;31.6;21.2
62981;PMS5003;49075;53.988;27.678;2023-05-16T16:01:38;32.4;30.4;21
62981;PMS5003;49075;53.988;27.678;2023-05-16T16:06:28;34.8;31.4;22
62981;PMS5003;49075;53.988;27.678;2023-05-16T16:11:28;38.4;33.8;22.8
62981;PMS5003;49075;53.988;27.678;2023-05-16T16:16:40;32.5;30.5;21.3
62981;PMS5003;49075;53.988;27.678;2023-05-16T16:21:28;40.4;35.4;23.8
62981;PMS5003;49075;53.988;27.678;2023-05-16T16:26:28;37.6;33.4;22.8
62981;PMS5003;49075;53.988;27.678;2023-05-16T16:31:32;36.2;32.8;23
62981;PMS5003;49075;53.988;27.678;2023-05-16T16:36:38;35.2;32.4;22
62981;PMS5003;49075;53.988;27.678;2023-05-16T16:41:48;33.8;30;20.4
62981;PMS5003;49075;53.988;27.678;2023-05-16T16:46:26;39.2;34.4;23
62981;PMS5003;49075;53.988;27.678;2023-05-16T16:51:48;37.2;33.4;22.6
62981;PMS5003;49075;53.988;27.678;2023-05-16T16:57:00;38.8;33.4;23.4
62981;PMS5003;49075;53.988;27.678;2023-05-16T17:01:44;34.2;31.2;21.6
62981;PMS5003;49075;53.988;27.678;2023-05-16T17:06:28;32.6;30.4;21.2
62981;PMS5003;49075;53.988;27.678;2023-05-16T17:11:40;36.4;33;22.2
62981;PMS5003;49075;53.988;27.678;2023-05-16T17:16:28;35.3;31.3;22
62981;PMS5003;49075;53.988;27.678;2023-05-16T17:21:28;36.2;32.8;22.2
62981;PMS5003;49075;53.988;27.678;2023-05-16T17:26:28;38.8;34.5;23.8
62981;PMS5003;49075;53.988;27.678;2023-05-16T17:31:38;46;39;27
62981;PMS5003;49075;53.988;27.678;2023-05-16T17:36:28;44.2;38.4;25.6
62981;PMS5003;49075;53.988;27.678;2023-05-16T17:41:28;34.2;31;21.6
62981;PMS5003;49075;53.988;27.678;2023-05-16T17:46:28;30;28;20
62981;PMS5003;49075;53.988;27.678;2023-05-16T17:51:48;30;28.3;19.7
62981;PMS5003;49075;53.988;27.678;2023-05-16T17:56:28;27.5;27.3;20
62981;PMS5003;49075;53.988;27.678;2023-05-16T18:02:00;34.8;32.4;22
62981;PMS5003;49075;53.988;27.678;2023-05-16T18:06:40;33.6;30.8;21.8
62981;PMS5003;49075;53.988;27.678;2023-05-16T18:11:38;32.4;30.4;21.6
62981;PMS5003;49075;53.988;27.678;2023-05-16T18:16:42;33;30.8;21
62981;PMS5003;49075;53.988;27.678;2023-05-16T18:21:54;39;34.2;23.4
62981;PMS5003;49075;53.988;27.678;2023-05-16T18:26:28;35.6;32;23
62981;PMS5003;49075;53.988;27.678;2023-05-16T18:31:40;39.4;34.6;23.2
62981;PMS5003;49075;53.988;27.678;2023-05-16T18:36:28;35.6;31.4;21.4
62981;PMS5003;49075;53.988;27.678;2023-05-16T18:41:28;37.8;34;23
62981;PMS5003;49075;53.988;27.678;2023-05-16T18:46:36;37.8;34;23
62981;PMS5003;49075;53.988;27.678;2023-05-16T18:51:28;39.8;35;24
62981;PMS5003;49075;53.988;27.678;2023-05-16T18:56:50;40.8;35;23.5
62981;PMS5003;49075;53.988;27.678;2023-05-16T19:01:42;39.2;34.6;24
62981;PMS5003;49075;53.988;27.678;2023-05-16T19:06:58;41.6;36.2;24.8
62981;PMS5003;49075;53.988;27.678;2023-05-16T19:11:52;39;34.4;23.4
62981;PMS5003;49075;53.988;27.678;2023-05-16T19:16:54;38.6;34.2;23.2
62981;PMS5003;49075;53.988;27.678;2023-05-16T19:21:28;40.6;35.4;23.6
62981;PMS5003;49075;53.988;27.678;2023-05-16T19:26:44;40.6;35.4;23.4
62981;PMS5003;49075;53.988;27.678;2023-05-16T19:32:13;40.6;35;24.2
62981;PMS5003;49075;53.988;27.678;2023-05-16T19:36:47;42.6;36.8;25.2
62981;PMS5003;49075;53.988;27.678;2023-05-16T19:41:28;40.2;35.4;24.4
62981;PMS5003;49075;53.988;27.678;2023-05-16T19:46:28;43.4;37;25
62981;PMS5003;49075;53.988;27.678;2023-05-16T19:51:28;43;36.8;24.6
62981;PMS5003;49075;53.988;27.678;2023-05-16T19:56:28;46.3;38.5;25
62981;PMS5003;49075;53.988;27.678;2023-05-16T20:01:44;42.8;37.6;25.4
62981;PMS5003;49075;53.988;27.678;2023-05-16T20:06:28;44.6;38.4;25.8
62981;PMS5003;49075;53.988;27.678;2023-05-16T20:12:02;40.4;35.4;24
62981;PMS5003;49075;53.988;27.678;2023-05-16T20:16:28;47.2;40;26.4
62981;PMS5003;49075;53.988;27.678;2023-05-16T20:21:40;46;38.8;26.2
62981;PMS5003;49075;53.988;27.678;2023-05-16T20:26:28;41.4;35.2;23.8
62981;PMS5003;49075;53.988;27.678;2023-05-16T20:31:54;43;37.6;25.2
62981;PMS5003;49075;53.988;27.678;2023-05-16T20:36:28;35;32.2;21.6
62981;PMS5003;49075;53.988;27.678;2023-05-16T20:41:40;37.4;33.8;22.4
62981;PMS5003;49075;53.988;27.678;2023-05-16T20:46:44;36.6;33;23.2
62981;PMS5003;49075;53.988;27.678;2023-05-16T20:51:38;34.6;32.4;22.4
62981;PMS5003;49075;53.988;27.678;2023-05-16T20:56:50;38.8;34.5;23.5
62981;PMS5003;49075;53.988;27.678;2023-05-16T21:01:30;38.6;34;23.4
62981;PMS5003;49075;53.988;27.678;2023-05-16T21:06:28;40.2;34.4;23.8
62981;PMS5003;49075;53.988;27.678;2023-05-16T21:11:29;32;30.4;22
62981;PMS5003;49075;53.988;27.678;2023-05-16T21:16:34;36.4;32.8;22.4
62981;PMS5003;49075;53.988;27.678;2023-05-16T21:21:38;37.2;32.6;22.2
62981;PMS5003;49075;53.988;27.678;2023-05-16T21:26:54;32.8;30.6;21.4
62981;PMS5003;49075;53.988;27.678;2023-05-16T21:31:28;35.6;32.2;22.2
62981;PMS5003;49075;53.988;27.678;2023-05-16T21:36:28;35.2;32.8;22.4
62981;PMS5003;49075;53.988;27.678;2023-05-16T21:41:40;37;33.8;23.8
62981;PMS5003;49075;53.988;27.678;2023-05-16T21:46:48;37.4;34.2;24.2
62981;PMS5003;49075;53.988;27.678;2023-05-16T21:51:42;35.4;32.2;22
62981;PMS5003;49075;53.988;27.678;2023-05-16T21:56:50;41.4;35.8;23.8
62981;PMS5003;49075;53.988;27.678;2023-05-16T22:01:34;40.8;34.8;23.5
62981;PMS5003;49075;53.988;27.678;2023-05-16T22:06:42;38;34;23
62981;PMS5003;49075;53.988;27.678;2023-05-16T22:11:40;39.6;34.6;24
62981;PMS5003;49075;53.988;27.678;2023-05-16T22:16:28;41.6;36;24
62981;PMS5003;49075;53.988;27.678;2023-05-16T22:21:54;41.6;35.4;24.4
62981;PMS5003;49075;53.988;27.678;2023-05-16T22:26:28;38.6;33.8;23.4
62981;PMS5003;49075;53.988;27.678;2023-05-16T22:31:38;40;34.8;23.4
62981;PMS5003;49075;53.988;27.678;2023-05-16T22:36:38;33.6;31.2;22.4
62981;PMS5003;49075;53.988;27.678;2023-05-16T22:41:40;38.6;34;23.4
62981;PMS5003;49075;53.988;27.678;2023-05-16T22:46:50;41.4;36.6;24.6
62981;PMS5003;49075;53.988;27.678;2023-05-16T22:51:28;39.6;35.2;24
62981;PMS5003;49075;53.988;27.678;2023-05-16T22:57:14;43.8;37.8;25.2
62981;PMS5003;49075;53.988;27.678;2023-05-16T23:01:54;44.3;37.5;24.8
62981;PMS5003;49075;53.988;27.678;2023-05-16T23:06:46;44.8;38.2;25.6
62981;PMS5003;49075;53.988;27.678;2023-05-16T23:11:44;37.4;33.8;23.8
62981;PMS5003;49075;53.988;27.678;2023-05-16T23:16:42;40.8;35;24.6
62981;PMS5003;49075;53.988;27.678;2023-05-16T23:21:52;44.4;37.2;25
62981;PMS5003;49075;53.988;27.678;2023-05-16T23:26:40;45;38.4;25.2
62981;PMS5003;49075;53.988;27.678;2023-05-16T23:31:28;42.8;36.6;25.2
62981;PMS5003;49075;53.988;27.678;2023-05-16T23:36:40;47.2;39.8;26.4
62981;PMS5003;49075;53.988;27.678;2023-05-16T23:41:38;49.6;41.8;27.8
62981;PMS5003;49075;53.988;27.678;2023-05-16T23:46:48;47.6;39.4;26.8
62981;PMS5003;49075;53.988;27.678;2023-05-16T23:51:40;47.8;40.4;26.6
62981;PMS5003;49075;53.988;27.678;2023-05-16T23:56:38;46.6;38.8;26
